Bookmark and Share
Track history (hours):
 

Ms Joyce

More information available from US FCC via Universal Licensing System and Coast Guard Vessel Documentation Center.

Last reported at 2012-Dec-08 06:34 UTC. Time now 2014-Apr-16 07:44 UTC.
Position N 28°55' W 089°16'.
Warning: this ship's position is years out of date!

Length 48 m; draft 3 m.

Type: Cargo ship. MMSI: 367123570.

NotesDate/timePositionNaut miles runAvg speedWind from/ knotsBaromVisibWave heightAir tempDewpointWater temp
2012-Dec-08 06:34N 28°55' W 089°16'1010.2
2012-Dec-08 05:37N 28°58' W 089°05'8 0.3
2012-Dec-07 03:30N 29°02' W 088°57'9 9.7
2012-Dec-07 02:33N 28°57' W 089°06'10 9.6
2012-Dec-07 01:34N 28°55' W 089°17'9 9.2
2012-Dec-07 00:33N 28°53' W 089°27'9 9.5
2012-Dec-06 23:33N 28°58' W 089°36'3 3.3
2012-Dec-06 22:31N 29°01' W 089°39'2 1.7
2012-Dec-06 21:32N 29°01' W 089°40'7 2.3
2012-Dec-06 18:34N 29°01' W 089°33'1 0.9
2012-Dec-06 17:33N 29°01' W 089°32'0 0.2
2012-Dec-06 16:34N 29°01' W 089°32'7 6.4
2012-Dec-06 15:33N 29°01' W 089°39'6 5.9
2012-Dec-06 14:28N 28°57' W 089°33'7 8.1
2012-Dec-06 13:33N 28°55' W 089°25'1010.3
2012-Dec-06 12:33N 29°04' W 089°18'9 9.4
2012-Dec-06 11:37N 29°13' W 089°17'5 4.3
2012-Dec-06 10:33N 29°15' W 089°21'0 0.0
2012-Dec-06 09:33N 29°15' W 089°21'0 0.2
2012-Dec-06 08:34N 29°15' W 089°21'0 0.0
2012-Dec-06 07:33N 29°15' W 089°21'0 0.0
2012-Dec-06 06:34N 29°15' W 089°21'2 2.1
2012-Dec-06 05:37N 29°15' W 089°19'9 8.1
2012-Dec-06 04:34N 29°07' W 089°16'9 9.1
2012-Dec-06 03:33N 28°59' W 089°22'8 7.8
2012-Dec-06 02:34N 28°54' W 089°29'1110.3
2012-Dec-06 01:30N 29°01' W 089°39'4 3.9
2012-Dec-06 00:30N 29°01' W 089°34'2 1.7
2012-Dec-05 23:33N 29°01' W 089°33'0 0.0
2012-Dec-05 22:33N 29°01' W 089°33'0 0.0
2012-Dec-05 21:34N 29°01' W 089°33'0 0.0
2012-Dec-05 20:34N 29°01' W 089°33'0 0.0
2012-Dec-05 19:33N 29°01' W 089°33'0 0.0
2012-Dec-05 18:33N 29°01' W 089°33'0 0.1
2012-Dec-05 17:34N 29°01' W 089°33'4 4.3
2012-Dec-05 16:33N 29°01' W 089°38'2 2.0
2012-Dec-05 15:33N 29°01' W 089°40'0 0.0
2012-Dec-05 14:33N 29°01' W 089°40'0 0.0
2012-Dec-05 13:33N 29°01' W 089°40'2 1.6
2012-Dec-05 12:32N 29°01' W 089°38'9 9.9
2012-Dec-05 11:37N 28°55' W 089°30'8 7.6
2012-Dec-05 10:33N 28°59' W 089°22'1010.3
2012-Dec-05 09:33N 29°08' W 089°16'9 9.1
2012-Dec-05 08:33N 29°16' W 089°21'1 0.6
2012-Dec-05 07:33N 29°15' W 089°21'0 0.0
2012-Dec-05 06:34N 29°15' W 089°21'0 0.0
2012-Dec-05 05:39N 29°15' W 089°21'0 0.2
2012-Dec-05 04:33N 29°15' W 089°21'6 6.0
2012-Dec-05 03:34N 29°11' W 089°16'9 8.6
2012-Dec-05 02:34N 29°03' W 089°19'9 9.4
2012-Dec-05 01:34N 28°56' W 089°25'7 7.3
2012-Dec-05 00:34N 28°58' W 089°33'7 6.8
2012-Dec-04 23:32N 29°01' W 089°40'0 0.0
2012-Dec-04 22:24N 29°01' W 089°40'3 0.9
2012-Dec-04 19:28N 29°00' W 089°37'3 3.1
2012-Dec-04 18:31N 29°02' W 089°34'5 5.0
2012-Dec-04 17:31N 29°01' W 089°40'5 4.6
2012-Dec-04 16:33N 29°01' W 089°35'2 2.5
2012-Dec-04 15:33N 29°01' W 089°32'3 2.7
2012-Dec-04 14:33N 29°02' W 089°35'3 2.7
2012-Dec-04 13:30N 28°60' W 089°37'9 9.8
2012-Dec-04 12:33N 28°54' W 089°28'8 8.8
2012-Dec-04 11:37N 28°60' W 089°22'10 9.8
2012-Dec-04 10:34N 29°09' W 089°15'8 8.5
2012-Dec-04 09:34N 29°16' W 089°21'0 0.4
2012-Dec-04 08:33N 29°15' W 089°21'0 0.0
2012-Dec-04 07:34N 29°15' W 089°21'0 0.0
2012-Dec-04 06:34N 29°15' W 089°21'0 0.4
2012-Dec-04 05:37N 29°16' W 089°21'8 7.4
2012-Dec-04 04:34N 29°10' W 089°15'10 9.5
2012-Dec-04 03:34N 29°01' W 089°21'9 9.3
2012-Dec-04 02:34N 28°54' W 089°27'9 9.4
2012-Dec-04 01:34N 28°59' W 089°36'4 4.3
2012-Dec-04 00:33N 29°01' W 089°40'7 7.1
2012-Dec-03 23:34N 29°01' W 089°32'4 4.1
2012-Dec-03 22:33N 29°01' W 089°37'0 0.0
2012-Dec-03 21:29N 29°01' W 089°37'0 0.0
2012-Dec-03 20:32N 29°01' W 089°37'0 0.0
2012-Dec-03 19:33N 29°01' W 089°37'0 0.0
2012-Dec-03 18:33N 29°01' W 089°37'0 0.1
2012-Dec-03 17:33N 29°01' W 089°37'4 4.2
2012-Dec-03 16:33N 29°01' W 089°32'7 6.9
2012-Dec-03 15:34N 29°01' W 089°40'0 0.0
2012-Dec-03 14:34N 29°01' W 089°40'5 4.9
2012-Dec-03 13:33N 28°58' W 089°35'9 9.2
2012-Dec-03 12:34N 28°54' W 089°26'1010.5
2012-Dec-03 11:36N 29°02' W 089°20'1110.1
2012-Dec-03 10:34N 29°12' W 089°17'5 5.0
2012-Dec-03 09:34N 29°15' W 089°21'0 0.0
2012-Dec-03 08:33N 29°15' W 089°21'0 0.0
2012-Dec-03 07:33N 29°15' W 089°21'4 3.7
2012-Dec-03 06:33N 29°14' W 089°18'8 8.4
2012-Dec-03 05:37N 29°06' W 089°17'10 9.3
2012-Dec-03 04:33N 28°58' W 089°23'4 4.3
2012-Dec-03 03:34N 28°55' W 089°20'1010.3
2012-Dec-03 02:33N 28°57' W 089°08'10 9.8
2012-Dec-03 01:33N 29°02' W 088°58'  
2012-Nov-29 12:34N 28°57' W 089°06'8 8.5
2012-Nov-29 11:38N 28°56' W 089°15'10 9.1
2012-Nov-29 10:33N 28°54' W 089°26'1111.2
2012-Nov-29 09:34N 29°03' W 089°19'1010.0
2012-Nov-29 08:33N 29°13' W 089°18'4 3.8
2012-Nov-29 07:33N 29°15' W 089°21'0 0.0
2012-Nov-29 06:34N 29°15' W 089°21'3 4.0
2012-Nov-29 05:45N 29°14' W 089°18'10 8.2
2012-Nov-29 04:34N 29°04' W 089°18'10 9.6
2012-Nov-29 03:34N 28°57' W 089°24'7 7.1
2012-Nov-29 02:33N 28°57' W 089°32'8 7.9
2012-Nov-29 01:33N 29°01' W 089°40'4 4.0
2012-Nov-29 00:33N 29°01' W 089°35'2 1.2
2012-Nov-28 22:33N 29°01' W 089°33'3 3.4
2012-Nov-28 21:33N 29°01' W 089°37'2 1.9
2012-Nov-28 20:33N 29°01' W 089°39'1 0.9
2012-Nov-28 19:29N 29°01' W 089°40'1 0.8
2012-Nov-28 18:31N 29°01' W 089°39'14 7.1
2012-Nov-28 16:33N 28°57' W 089°24'1111.4
2012-Nov-28 15:34N 29°07' W 089°16'1010.5
2012-Nov-28 14:34N 29°16' W 089°21'1 1.0
2012-Nov-28 13:34N 29°15' W 089°21'0 0.0
2012-Nov-28 12:33N 29°15' W 089°21'0 0.0
2012-Nov-28 11:37N 29°15' W 089°21'0 0.0
2012-Nov-28 10:34N 29°15' W 089°21'0 0.0
2012-Nov-28 09:34N 29°15' W 089°21'0 0.0
2012-Nov-28 08:33N 29°15' W 089°21'0 0.0
2012-Nov-28 07:34N 29°15' W 089°21'0 0.0
2012-Nov-28 06:34N 29°15' W 089°21'  

Dump ship's entire track history

sailing weather and tide predictions

Ms Joyce — WDF4282 — position and weather